This is the latest recevied weather packets stored in our database for station/object SPRFLD. If no packets are shown the sender has not sent any weather packets the latest 10 day(s).
| Time | Temp. | Humidity | Pressure | Rain* | Wind** | Luminosity | Snow |
|---|---|---|---|---|---|---|---|
| 1777377494 | 6.11° C | 91% | 1021.9 hPa | 0 mm | - | - | - |
| 1777375087 | 6.11° C | 91% | 1021.7 hPa | 0 mm | - | - | - |
| 1777363708 | 6.67° C | 86% | 1021.4 hPa | 0 mm | - | - | - |
| 1777361300 | 7.22° C | 84% | 1021.2 hPa | 0 mm | - | - | - |
| 1777355324 | 8.89° C | 78% | 1020.6 hPa | 0 mm | - | - | - |
| 1777352906 | 8.89° C | 77% | 1020.4 hPa | 0 mm | - | - | - |
| 1777348688 | 10° C | 74% | 1019.5 hPa | 0 mm | - | - | - |
| 1777346302 | 10.56° C | 72% | 1019.4 hPa | 0 mm | - | - | - |
| 1777343323 | 11.67° C | 67% | 1019.1 hPa | 0 mm | - | - | - |
| 1777342699 | 11.67° C | 66% | 1019.1 hPa | 0 mm | - | - | - |
| 1777338484 | 13.89° C | 57% | 1019 hPa | 0 mm | - | - | - |
| 1777336109 | 16.11° C | 52% | 1019 hPa | 0 mm | - | - | - |
| 1777331894 | 15.56° C | 55% | 1018.8 hPa | 0 mm | - | - | - |
| 1777329487 | 13.89° C | 60% | 1019.1 hPa | 0 mm | - | - | - |
| 1777328887 | 13.89° C | 62% | 1019.1 hPa | 0 mm | - | - | - |
| 1777325326 | 10° C | 77% | 1019.5 hPa | 0 mm | - | - | - |
| 1777324099 | 9.44° C | 77% | 1019.4 hPa | 0 mm | - | - | - |
| 1777323498 | 8.89° C | 80% | 1019.4 hPa | 0 mm | - | - | - |
| 1777322896 | 8.89° C | 80% | 1019.3 hPa | 0 mm | - | - | - |
| 1777322293 | 8.89° C | 80% | 1019.3 hPa | 0 mm | - | - | - |
| 1777318110 | 7.22° C | 89% | 1019.3 hPa | 0 mm | - | - | - |
| 1777317506 | 6.67° C | 89% | 1019.4 hPa | 0 mm | - | - | - |
| 1777315699 | 6.67° C | 91% | 1019.3 hPa | 0 mm | - | - | - |
| 1777315095 | 6.67° C | 92% | 1019.4 hPa | 0 mm | - | - | - |
| 1777309108 | 5.56° C | 95% | 1018.9 hPa | 0 mm | - | - | - |
* Rain latest hour (hover to see other rain measurements)
** Current wind speed in m/s (hover to see current wind gust speed)